This is the latest recevied weather packets stored in our database for station/object OK2CME-6. If no packets are shown the sender has not sent any weather packets the latest 10 day(s).
| Time | Temp. | Humidity | Pressure | Rain* | Wind** | Luminosity | Snow |
|---|---|---|---|---|---|---|---|
| 1778350549 | 10.56° C | 70% | 1022.1 hPa | 0 mm | - | 14 W/m² | - |
| 1778349349 | 11.11° C | 68% | 1022.2 hPa | 0 mm | - | 27 W/m² | - |
| 1778348149 | 11.67° C | 67% | 1022 hPa | 0 mm | - | 43 W/m² | - |
| 1778346949 | 12.22° C | 66% | 1021.9 hPa | 0 mm | - | 56 W/m² | - |
| 1778345749 | 12.22° C | 64% | 1021.9 hPa | 0 mm | - | 79 W/m² | - |
| 1778344549 | 12.22° C | 64% | 1022.1 hPa | 0 mm | - | 78 W/m² | - |
| 1778343349 | 12.78° C | 64% | 1022.1 hPa | 0 mm | - | 109 W/m² | - |
| 1778342149 | 12.78° C | 65% | 1022.5 hPa | 0 mm | - | 102 W/m² | - |
| 1778340949 | 13.33° C | 63% | 1022.3 hPa | 0 mm | - | 129 W/m² | - |
| 1778339749 | 12.78° C | 64% | 1022 hPa | 0 mm | - | 117 W/m² | - |
| 1778338549 | 13.33° C | 64% | 1022.2 hPa | 0 mm | - | 144 W/m² | - |
| 1778337349 | 13.33° C | 63% | 1021.9 hPa | 0 mm | - | 197 W/m² | - |
| 1778336149 | 13.89° C | 60% | 1022.3 hPa | 0 mm | - | 188 W/m² | - |
| 1778334949 | 14.44° C | 57% | 1022.1 hPa | 0 mm | - | 288 W/m² | - |
| 1778333749 | 13.89° C | 58% | 1022.2 hPa | 0 mm | - | 191 W/m² | - |
| 1778332549 | 13.33° C | 62% | 1022.3 hPa | 0 mm | - | 196 W/m² | - |
| 1778331349 | 13.33° C | 62% | 1022.4 hPa | 0 mm | - | 253 W/m² | - |
| 1778330149 | 13.33° C | 63% | 1022.6 hPa | 0 mm | - | 325 W/m² | - |
| 1778328949 | 13.33° C | 64% | 1022.9 hPa | 0 mm | - | 257 W/m² | - |
| 1778327749 | 13.33° C | 64% | 1022.6 hPa | 0 mm | - | 381 W/m² | - |
| 1778326549 | 13.33° C | 63% | 1022.7 hPa | 0 mm | - | 294 W/m² | - |
| 1778325349 | 12.78° C | 63% | 1022.6 hPa | 0 mm | - | 155 W/m² | - |
| 1778324149 | 13.33° C | 60% | 1022.7 hPa | 0 mm | - | 336 W/m² | - |
| 1778322949 | 13.33° C | 61% | 1022.8 hPa | 0 mm | - | 218 W/m² | - |
| 1778321749 | 12.78° C | 65% | 1022.8 hPa | 0 mm | - | 227 W/m² | - |
* Rain latest hour (hover to see other rain measurements)
** Current wind speed in m/s (hover to see current wind gust speed)